sensor_id;sensor_type;location;lat;lon;timestamp;P1;durP1;ratioP1;P2;durP2;ratioP2
37997;SDS011;24079;51.824;4.682;2022-10-31T00:02:19;12.88;;;6.07;;
37997;SDS011;24079;51.824;4.682;2022-10-31T00:04:45;11.52;;;6.65;;
37997;SDS011;24079;51.824;4.682;2022-10-31T00:07:10;13.02;;;7.00;;
37997;SDS011;24079;51.824;4.682;2022-10-31T00:09:36;12.75;;;7.15;;
37997;SDS011;24079;51.824;4.682;2022-10-31T00:12:02;14.65;;;6.68;;
37997;SDS011;24079;51.824;4.682;2022-10-31T00:14:27;12.27;;;7.10;;
37997;SDS011;24079;51.824;4.682;2022-10-31T00:16:53;12.90;;;6.30;;
37997;SDS011;24079;51.824;4.682;2022-10-31T00:19:18;11.65;;;6.28;;
37997;SDS011;24079;51.824;4.682;2022-10-31T00:21:44;15.70;;;6.93;;
37997;SDS011;24079;51.824;4.682;2022-10-31T00:24:10;14.48;;;6.35;;
37997;SDS011;24079;51.824;4.682;2022-10-31T00:26:35;13.90;;;7.03;;
37997;SDS011;24079;51.824;4.682;2022-10-31T00:29:01;12.50;;;7.10;;
37997;SDS011;24079;51.824;4.682;2022-10-31T00:31:27;11.77;;;7.28;;
37997;SDS011;24079;51.824;4.682;2022-10-31T00:33:54;17.13;;;7.18;;
37997;SDS011;24079;51.824;4.682;2022-10-31T00:36:19;14.63;;;6.90;;
37997;SDS011;24079;51.824;4.682;2022-10-31T00:38:45;18.90;;;7.90;;
37997;SDS011;24079;51.824;4.682;2022-10-31T00:41:13;13.35;;;7.32;;
37997;SDS011;24079;51.824;4.682;2022-10-31T00:43:40;15.43;;;7.20;;
37997;SDS011;24079;51.824;4.682;2022-10-31T00:46:06;15.25;;;7.53;;
37997;SDS011;24079;51.824;4.682;2022-10-31T00:48:32;12.07;;;7.63;;
37997;SDS011;24079;51.824;4.682;2022-10-31T00:50:58;16.55;;;7.57;;
37997;SDS011;24079;51.824;4.682;2022-10-31T00:53:23;15.13;;;8.02;;
37997;SDS011;24079;51.824;4.682;2022-10-31T00:55:49;15.85;;;7.22;;
37997;SDS011;24079;51.824;4.682;2022-10-31T00:58:14;17.67;;;7.95;;
37997;SDS011;24079;51.824;4.682;2022-10-31T01:00:40;15.38;;;8.38;;
37997;SDS011;24079;51.824;4.682;2022-10-31T01:03:06;17.25;;;7.35;;
37997;SDS011;24079;51.824;4.682;2022-10-31T01:05:32;13.52;;;7.35;;
37997;SDS011;24079;51.824;4.682;2022-10-31T01:07:58;14.52;;;8.10;;
37997;SDS011;24079;51.824;4.682;2022-10-31T01:10:24;14.50;;;8.18;;
37997;SDS011;24079;51.824;4.682;2022-10-31T01:12:49;16.27;;;7.95;;
37997;SDS011;24079;51.824;4.682;2022-10-31T01:15:16;15.13;;;7.47;;
37997;SDS011;24079;51.824;4.682;2022-10-31T01:17:44;12.00;;;7.85;;
37997;SDS011;24079;51.824;4.682;2022-10-31T01:20:10;14.13;;;7.93;;
37997;SDS011;24079;51.824;4.682;2022-10-31T01:22:37;16.40;;;8.00;;
37997;SDS011;24079;51.824;4.682;2022-10-31T01:25:03;14.85;;;7.85;;
37997;SDS011;24079;51.824;4.682;2022-10-31T01:27:29;13.77;;;7.55;;
37997;SDS011;24079;51.824;4.682;2022-10-31T01:29:56;12.30;;;7.65;;
37997;SDS011;24079;51.824;4.682;2022-10-31T01:32:22;19.60;;;8.35;;
37997;SDS011;24079;51.824;4.682;2022-10-31T01:34:47;16.90;;;8.32;;
37997;SDS011;24079;51.824;4.682;2022-10-31T01:37:13;14.20;;;8.68;;
37997;SDS011;24079;51.824;4.682;2022-10-31T01:39:38;18.90;;;8.90;;
37997;SDS011;24079;51.824;4.682;2022-10-31T01:42:04;13.20;;;8.25;;
37997;SDS011;24079;51.824;4.682;2022-10-31T01:46:59;21.33;;;8.75;;
37997;SDS011;24079;51.824;4.682;2022-10-31T01:49:34;17.10;;;8.30;;
37997;SDS011;24079;51.824;4.682;2022-10-31T01:52:14;18.45;;;8.77;;
37997;SDS011;24079;51.824;4.682;2022-10-31T01:54:57;16.27;;;9.20;;
37997;SDS011;24079;51.824;4.682;2022-10-31T01:57:33;18.23;;;8.85;;
37997;SDS011;24079;51.824;4.682;2022-10-31T02:00:06;16.63;;;9.13;;
37997;SDS011;24079;51.824;4.682;2022-10-31T02:02:34;15.75;;;9.43;;
37997;SDS011;24079;51.824;4.682;2022-10-31T02:05:01;17.25;;;9.63;;
37997;SDS011;24079;51.824;4.682;2022-10-31T02:07:32;17.48;;;8.85;;
37997;SDS011;24079;51.824;4.682;2022-10-31T02:10:02;16.60;;;9.18;;
37997;SDS011;24079;51.824;4.682;2022-10-31T02:12:29;17.88;;;9.52;;
37997;SDS011;24079;51.824;4.682;2022-10-31T02:14:56;19.65;;;9.60;;
37997;SDS011;24079;51.824;4.682;2022-10-31T02:17:22;15.77;;;8.27;;
37997;SDS011;24079;51.824;4.682;2022-10-31T02:20:00;14.95;;;9.35;;
37997;SDS011;24079;51.824;4.682;2022-10-31T02:33:55;13.98;;;8.32;;
37997;SDS011;24079;51.824;4.682;2022-10-31T02:36:27;18.23;;;9.43;;
37997;SDS011;24079;51.824;4.682;2022-10-31T02:39:18;14.68;;;9.45;;
37997;SDS011;24079;51.824;4.682;2022-10-31T02:41:52;16.80;;;9.40;;
37997;SDS011;24079;51.824;4.682;2022-10-31T02:47:36;20.52;;;9.57;;
37997;SDS011;24079;51.824;4.682;2022-10-31T02:52:32;17.70;;;9.98;;
37997;SDS011;24079;51.824;4.682;2022-10-31T02:55:09;14.75;;;9.60;;
37997;SDS011;24079;51.824;4.682;2022-10-31T02:57:37;19.02;;;10.88;;
37997;SDS011;24079;51.824;4.682;2022-10-31T03:00:07;19.20;;;10.52;;
37997;SDS011;24079;51.824;4.682;2022-10-31T03:18:40;20.52;;;11.80;;
37997;SDS011;24079;51.824;4.682;2022-10-31T03:21:20;19.35;;;11.93;;
37997;SDS011;24079;51.824;4.682;2022-10-31T03:23:50;20.50;;;12.68;;
37997;SDS011;24079;51.824;4.682;2022-10-31T03:26:18;23.73;;;13.73;;
37997;SDS011;24079;51.824;4.682;2022-10-31T03:28:49;18.40;;;13.05;;
37997;SDS011;24079;51.824;4.682;2022-10-31T03:31:22;19.50;;;12.90;;
37997;SDS011;24079;51.824;4.682;2022-10-31T03:33:51;23.17;;;14.15;;
37997;SDS011;24079;51.824;4.682;2022-10-31T03:36:19;20.50;;;14.15;;
37997;SDS011;24079;51.824;4.682;2022-10-31T03:38:45;25.80;;;14.63;;
37997;SDS011;24079;51.824;4.682;2022-10-31T03:41:13;20.20;;;13.18;;
37997;SDS011;24079;51.824;4.682;2022-10-31T03:43:48;23.33;;;14.18;;
37997;SDS011;24079;51.824;4.682;2022-10-31T03:46:28;21.42;;;14.90;;
37997;SDS011;24079;51.824;4.682;2022-10-31T03:48:54;22.55;;;14.65;;
37997;SDS011;24079;51.824;4.682;2022-10-31T03:51:25;24.98;;;14.32;;
37997;SDS011;24079;51.824;4.682;2022-10-31T03:56:50;23.55;;;15.00;;
37997;SDS011;24079;51.824;4.682;2022-10-31T03:59:35;23.25;;;14.65;;
37997;SDS011;24079;51.824;4.682;2022-10-31T04:02:07;23.35;;;14.80;;
37997;SDS011;24079;51.824;4.682;2022-10-31T04:04:36;23.83;;;15.43;;
37997;SDS011;24079;51.824;4.682;2022-10-31T04:07:03;21.13;;;15.05;;
37997;SDS011;24079;51.824;4.682;2022-10-31T04:09:31;24.35;;;15.57;;
37997;SDS011;24079;51.824;4.682;2022-10-31T04:11:59;25.90;;;15.95;;
37997;SDS011;24079;51.824;4.682;2022-10-31T04:14:28;24.55;;;14.88;;
37997;SDS011;24079;51.824;4.682;2022-10-31T04:16:56;24.13;;;15.48;;
37997;SDS011;24079;51.824;4.682;2022-10-31T04:19:21;24.80;;;15.48;;
37997;SDS011;24079;51.824;4.682;2022-10-31T04:21:47;22.55;;;14.95;;
37997;SDS011;24079;51.824;4.682;2022-10-31T04:24:12;22.33;;;15.68;;
37997;SDS011;24079;51.824;4.682;2022-10-31T04:26:38;27.00;;;16.25;;
37997;SDS011;24079;51.824;4.682;2022-10-31T04:29:03;24.05;;;16.23;;
37997;SDS011;24079;51.824;4.682;2022-10-31T04:31:29;25.17;;;15.45;;
37997;SDS011;24079;51.824;4.682;2022-10-31T04:33:55;22.40;;;15.18;;
37997;SDS011;24079;51.824;4.682;2022-10-31T04:36:20;25.35;;;16.33;;
37997;SDS011;24079;51.824;4.682;2022-10-31T04:38:46;27.33;;;17.23;;
37997;SDS011;24079;51.824;4.682;2022-10-31T04:41:11;28.60;;;17.10;;
37997;SDS011;24079;51.824;4.682;2022-10-31T04:43:37;26.40;;;17.13;;
37997;SDS011;24079;51.824;4.682;2022-10-31T04:46:02;23.88;;;15.88;;
37997;SDS011;24079;51.824;4.682;2022-10-31T04:48:29;29.92;;;17.77;;
37997;SDS011;24079;51.824;4.682;2022-10-31T04:51:01;27.50;;;17.50;;
37997;SDS011;24079;51.824;4.682;2022-10-31T04:53:27;27.00;;;16.73;;
37997;SDS011;24079;51.824;4.682;2022-10-31T04:55:54;25.25;;;17.45;;
37997;SDS011;24079;51.824;4.682;2022-10-31T04:58:19;25.70;;;16.50;;
37997;SDS011;24079;51.824;4.682;2022-10-31T05:06:45;29.30;;;17.90;;
37997;SDS011;24079;51.824;4.682;2022-10-31T05:09:11;26.25;;;17.52;;
37997;SDS011;24079;51.824;4.682;2022-10-31T05:11:36;29.60;;;17.27;;
37997;SDS011;24079;51.824;4.682;2022-10-31T05:14:02;32.80;;;18.60;;
37997;SDS011;24079;51.824;4.682;2022-10-31T05:16:27;29.60;;;17.65;;
37997;SDS011;24079;51.824;4.682;2022-10-31T05:18:53;27.58;;;17.13;;
37997;SDS011;24079;51.824;4.682;2022-10-31T05:21:19;28.83;;;18.35;;
37997;SDS011;24079;51.824;4.682;2022-10-31T05:23:44;31.23;;;20.08;;
37997;SDS011;24079;51.824;4.682;2022-10-31T05:26:10;29.77;;;19.23;;
37997;SDS011;24079;51.824;4.682;2022-10-31T05:28:35;31.73;;;19.25;;
37997;SDS011;24079;51.824;4.682;2022-10-31T05:31:01;26.13;;;18.42;;
37997;SDS011;24079;51.824;4.682;2022-10-31T05:33:27;28.60;;;19.88;;
37997;SDS011;24079;51.824;4.682;2022-10-31T05:35:52;33.72;;;21.10;;
37997;SDS011;24079;51.824;4.682;2022-10-31T05:38:18;32.47;;;20.25;;
37997;SDS011;24079;51.824;4.682;2022-10-31T05:40:43;25.23;;;18.23;;
37997;SDS011;24079;51.824;4.682;2022-10-31T05:43:09;29.50;;;19.17;;
37997;SDS011;24079;51.824;4.682;2022-10-31T05:45:34;32.17;;;19.08;;
37997;SDS011;24079;51.824;4.682;2022-10-31T05:48:00;30.42;;;19.70;;
37997;SDS011;24079;51.824;4.682;2022-10-31T05:50:27;29.05;;;18.85;;
37997;SDS011;24079;51.824;4.682;2022-10-31T05:52:55;29.35;;;18.70;;
37997;SDS011;24079;51.824;4.682;2022-10-31T05:55:23;30.52;;;19.60;;
37997;SDS011;24079;51.824;4.682;2022-10-31T05:57:48;32.67;;;20.52;;
37997;SDS011;24079;51.824;4.682;2022-10-31T06:00:14;33.08;;;20.33;;
37997;SDS011;24079;51.824;4.682;2022-10-31T06:02:40;32.53;;;19.92;;
37997;SDS011;24079;51.824;4.682;2022-10-31T06:05:05;30.98;;;20.67;;
37997;SDS011;24079;51.824;4.682;2022-10-31T06:07:32;34.20;;;20.58;;
37997;SDS011;24079;51.824;4.682;2022-10-31T06:09:59;35.92;;;21.80;;
37997;SDS011;24079;51.824;4.682;2022-10-31T06:12:25;32.97;;;20.90;;
37997;SDS011;24079;51.824;4.682;2022-10-31T06:14:51;31.13;;;21.45;;
37997;SDS011;24079;51.824;4.682;2022-10-31T06:17:16;36.90;;;20.40;;
37997;SDS011;24079;51.824;4.682;2022-10-31T06:19:42;31.95;;;20.60;;
37997;SDS011;24079;51.824;4.682;2022-10-31T06:22:08;32.55;;;20.52;;
37997;SDS011;24079;51.824;4.682;2022-10-31T06:24:33;27.75;;;19.73;;
37997;SDS011;24079;51.824;4.682;2022-10-31T06:26:59;29.83;;;19.65;;
37997;SDS011;24079;51.824;4.682;2022-10-31T06:29:24;35.13;;;19.80;;
37997;SDS011;24079;51.824;4.682;2022-10-31T06:31:53;32.10;;;20.33;;
37997;SDS011;24079;51.824;4.682;2022-10-31T06:34:18;30.48;;;19.67;;
37997;SDS011;24079;51.824;4.682;2022-10-31T06:36:45;33.55;;;19.23;;
37997;SDS011;24079;51.824;4.682;2022-10-31T06:39:11;28.42;;;19.52;;
37997;SDS011;24079;51.824;4.682;2022-10-31T06:41:37;33.90;;;19.40;;
37997;SDS011;24079;51.824;4.682;2022-10-31T06:44:04;28.02;;;18.88;;
37997;SDS011;24079;51.824;4.682;2022-10-31T06:46:30;33.38;;;19.58;;
37997;SDS011;24079;51.824;4.682;2022-10-31T06:48:56;31.20;;;19.80;;
37997;SDS011;24079;51.824;4.682;2022-10-31T06:51:22;32.72;;;20.77;;
37997;SDS011;24079;51.824;4.682;2022-10-31T06:53:47;30.23;;;18.92;;
37997;SDS011;24079;51.824;4.682;2022-10-31T06:56:13;31.73;;;19.38;;
37997;SDS011;24079;51.824;4.682;2022-10-31T06:58:39;35.95;;;20.30;;
37997;SDS011;24079;51.824;4.682;2022-10-31T07:01:04;36.78;;;21.48;;
37997;SDS011;24079;51.824;4.682;2022-10-31T07:03:30;32.35;;;20.45;;
37997;SDS011;24079;51.824;4.682;2022-10-31T07:05:56;32.22;;;20.52;;
37997;SDS011;24079;51.824;4.682;2022-10-31T07:08:22;36.83;;;20.42;;
37997;SDS011;24079;51.824;4.682;2022-10-31T07:10:54;31.60;;;19.63;;
37997;SDS011;24079;51.824;4.682;2022-10-31T07:13:22;35.20;;;20.20;;
37997;SDS011;24079;51.824;4.682;2022-10-31T07:15:50;34.10;;;20.40;;
37997;SDS011;24079;51.824;4.682;2022-10-31T07:18:17;35.15;;;20.80;;
37997;SDS011;24079;51.824;4.682;2022-10-31T07:20:42;32.38;;;20.08;;
37997;SDS011;24079;51.824;4.682;2022-10-31T07:23:11;29.48;;;18.70;;
37997;SDS011;24079;51.824;4.682;2022-10-31T07:25:38;34.90;;;19.83;;
37997;SDS011;24079;51.824;4.682;2022-10-31T07:28:04;29.58;;;20.15;;
37997;SDS011;24079;51.824;4.682;2022-10-31T07:30:30;28.80;;;18.55;;
37997;SDS011;24079;51.824;4.682;2022-10-31T07:32:56;31.55;;;19.42;;
37997;SDS011;24079;51.824;4.682;2022-10-31T07:35:23;33.45;;;20.35;;
37997;SDS011;24079;51.824;4.682;2022-10-31T07:37:50;31.38;;;20.42;;
37997;SDS011;24079;51.824;4.682;2022-10-31T07:40:16;30.35;;;20.65;;
37997;SDS011;24079;51.824;4.682;2022-10-31T07:42:44;30.90;;;19.90;;
37997;SDS011;24079;51.824;4.682;2022-10-31T07:45:13;31.13;;;20.40;;
37997;SDS011;24079;51.824;4.682;2022-10-31T07:47:42;32.83;;;21.20;;
37997;SDS011;24079;51.824;4.682;2022-10-31T07:50:08;30.98;;;20.77;;
37997;SDS011;24079;51.824;4.682;2022-10-31T07:52:35;33.22;;;22.50;;
37997;SDS011;24079;51.824;4.682;2022-10-31T07:55:01;33.38;;;21.02;;
37997;SDS011;24079;51.824;4.682;2022-10-31T07:57:27;32.72;;;21.70;;
37997;SDS011;24079;51.824;4.682;2022-10-31T07:59:53;34.47;;;21.55;;
37997;SDS011;24079;51.824;4.682;2022-10-31T08:02:19;33.60;;;21.80;;
37997;SDS011;24079;51.824;4.682;2022-10-31T08:04:44;34.65;;;20.77;;
37997;SDS011;24079;51.824;4.682;2022-10-31T08:07:10;29.70;;;20.35;;
37997;SDS011;24079;51.824;4.682;2022-10-31T08:09:35;33.30;;;20.27;;
37997;SDS011;24079;51.824;4.682;2022-10-31T08:12:01;29.30;;;19.13;;
37997;SDS011;24079;51.824;4.682;2022-10-31T08:14:27;37.65;;;21.38;;
37997;SDS011;24079;51.824;4.682;2022-10-31T08:16:53;32.42;;;19.98;;
37997;SDS011;24079;51.824;4.682;2022-10-31T08:19:19;34.35;;;20.48;;
37997;SDS011;24079;51.824;4.682;2022-10-31T08:21:44;35.17;;;20.00;;
37997;SDS011;24079;51.824;4.682;2022-10-31T08:24:10;36.05;;;21.05;;
37997;SDS011;24079;51.824;4.682;2022-10-31T08:26:36;34.05;;;21.88;;
37997;SDS011;24079;51.824;4.682;2022-10-31T08:29:01;34.22;;;21.25;;
37997;SDS011;24079;51.824;4.682;2022-10-31T08:31:28;34.95;;;22.13;;
37997;SDS011;24079;51.824;4.682;2022-10-31T08:33:54;31.00;;;21.05;;
37997;SDS011;24079;51.824;4.682;2022-10-31T08:36:20;30.75;;;20.25;;
37997;SDS011;24079;51.824;4.682;2022-10-31T08:38:46;35.75;;;21.80;;
37997;SDS011;24079;51.824;4.682;2022-10-31T08:41:12;33.10;;;21.23;;
37997;SDS011;24079;51.824;4.682;2022-10-31T08:43:39;35.53;;;23.35;;
37997;SDS011;24079;51.824;4.682;2022-10-31T08:46:04;29.77;;;21.48;;
37997;SDS011;24079;51.824;4.682;2022-10-31T08:48:30;33.20;;;22.27;;
37997;SDS011;24079;51.824;4.682;2022-10-31T08:50:57;34.30;;;22.10;;
37997;SDS011;24079;51.824;4.682;2022-10-31T08:53:23;34.10;;;22.40;;
37997;SDS011;24079;51.824;4.682;2022-10-31T08:55:49;31.20;;;21.25;;
37997;SDS011;24079;51.824;4.682;2022-10-31T08:58:16;29.45;;;20.67;;
37997;SDS011;24079;51.824;4.682;2022-10-31T09:00:43;25.85;;;19.48;;
37997;SDS011;24079;51.824;4.682;2022-10-31T09:03:10;32.63;;;20.70;;
37997;SDS011;24079;51.824;4.682;2022-10-31T09:05:38;37.55;;;22.33;;
37997;SDS011;24079;51.824;4.682;2022-10-31T09:08:04;34.85;;;21.73;;
37997;SDS011;24079;51.824;4.682;2022-10-31T09:10:31;29.48;;;21.67;;
37997;SDS011;24079;51.824;4.682;2022-10-31T09:12:58;35.10;;;21.90;;
37997;SDS011;24079;51.824;4.682;2022-10-31T09:15:26;37.85;;;24.08;;
37997;SDS011;24079;51.824;4.682;2022-10-31T09:17:52;33.80;;;23.17;;
37997;SDS011;24079;51.824;4.682;2022-10-31T09:20:18;31.33;;;22.23;;
37997;SDS011;24079;51.824;4.682;2022-10-31T09:22:44;35.13;;;21.88;;
37997;SDS011;24079;51.824;4.682;2022-10-31T09:25:10;39.72;;;22.80;;
37997;SDS011;24079;51.824;4.682;2022-10-31T09:27:36;35.58;;;22.58;;
37997;SDS011;24079;51.824;4.682;2022-10-31T09:30:02;28.33;;;21.58;;
37997;SDS011;24079;51.824;4.682;2022-10-31T09:32:28;33.10;;;22.48;;
37997;SDS011;24079;51.824;4.682;2022-10-31T09:34:54;31.48;;;22.13;;
37997;SDS011;24079;51.824;4.682;2022-10-31T09:37:19;36.30;;;21.77;;
37997;SDS011;24079;51.824;4.682;2022-10-31T09:39:45;36.83;;;21.73;;
37997;SDS011;24079;51.824;4.682;2022-10-31T09:42:17;36.80;;;21.90;;
37997;SDS011;24079;51.824;4.682;2022-10-31T09:45:06;33.40;;;21.52;;
37997;SDS011;24079;51.824;4.682;2022-10-31T09:50:19;34.08;;;21.52;;
37997;SDS011;24079;51.824;4.682;2022-10-31T09:52:51;35.08;;;21.17;;
37997;SDS011;24079;51.824;4.682;2022-10-31T09:55:35;31.13;;;20.20;;
37997;SDS011;24079;51.824;4.682;2022-10-31T09:58:03;38.50;;;21.42;;
37997;SDS011;24079;51.824;4.682;2022-10-31T10:00:30;37.70;;;20.52;;
37997;SDS011;24079;51.824;4.682;2022-10-31T10:06:21;34.15;;;20.75;;
37997;SDS011;24079;51.824;4.682;2022-10-31T10:08:49;31.17;;;20.20;;
37997;SDS011;24079;51.824;4.682;2022-10-31T10:11:19;35.42;;;21.08;;
37997;SDS011;24079;51.824;4.682;2022-10-31T10:20:05;35.33;;;20.13;;
37997;SDS011;24079;51.824;4.682;2022-10-31T10:25:10;31.98;;;19.85;;
37997;SDS011;24079;51.824;4.682;2022-10-31T10:28:13;32.70;;;19.08;;
37997;SDS011;24079;51.824;4.682;2022-10-31T10:31:14;28.92;;;19.15;;
37997;SDS011;24079;51.824;4.682;2022-10-31T10:36:21;29.05;;;17.75;;
37997;SDS011;24079;51.824;4.682;2022-10-31T10:38:58;30.20;;;18.52;;
37997;SDS011;24079;51.824;4.682;2022-10-31T10:41:30;31.92;;;19.55;;
37997;SDS011;24079;51.824;4.682;2022-10-31T10:43:57;31.83;;;18.63;;
37997;SDS011;24079;51.824;4.682;2022-10-31T10:59:59;35.35;;;19.75;;
37997;SDS011;24079;51.824;4.682;2022-10-31T11:02:30;32.67;;;19.07;;
37997;SDS011;24079;51.824;4.682;2022-10-31T11:04:58;37.70;;;19.58;;
37997;SDS011;24079;51.824;4.682;2022-10-31T11:07:25;34.97;;;20.95;;
37997;SDS011;24079;51.824;4.682;2022-10-31T11:10:03;35.80;;;20.83;;
37997;SDS011;24079;51.824;4.682;2022-10-31T11:12:33;30.92;;;19.73;;
37997;SDS011;24079;51.824;4.682;2022-10-31T11:15:00;37.40;;;21.67;;
37997;SDS011;24079;51.824;4.682;2022-10-31T11:17:33;38.13;;;23.98;;
37997;SDS011;24079;51.824;4.682;2022-10-31T11:22:47;39.58;;;23.48;;
37997;SDS011;24079;51.824;4.682;2022-10-31T11:25:20;42.30;;;24.27;;
37997;SDS011;24079;51.824;4.682;2022-10-31T11:28:01;44.55;;;24.30;;
37997;SDS011;24079;51.824;4.682;2022-10-31T11:30:27;44.33;;;25.95;;
37997;SDS011;24079;51.824;4.682;2022-10-31T11:32:54;44.63;;;25.50;;
37997;SDS011;24079;51.824;4.682;2022-10-31T11:35:20;45.58;;;25.20;;
37997;SDS011;24079;51.824;4.682;2022-10-31T11:37:49;42.65;;;27.40;;
37997;SDS011;24079;51.824;4.682;2022-10-31T11:40:19;47.40;;;26.83;;
37997;SDS011;24079;51.824;4.682;2022-10-31T11:42:47;50.47;;;28.08;;
37997;SDS011;24079;51.824;4.682;2022-10-31T11:45:33;46.63;;;27.05;;
37997;SDS011;24079;51.824;4.682;2022-10-31T11:48:02;47.08;;;26.88;;
37997;SDS011;24079;51.824;4.682;2022-10-31T11:50:40;44.50;;;26.90;;
37997;SDS011;24079;51.824;4.682;2022-10-31T11:53:15;49.53;;;29.42;;
37997;SDS011;24079;51.824;4.682;2022-10-31T11:55:43;47.50;;;28.75;;
37997;SDS011;24079;51.824;4.682;2022-10-31T11:58:20;45.85;;;28.27;;
37997;SDS011;24079;51.824;4.682;2022-10-31T12:00:51;51.15;;;29.48;;
37997;SDS011;24079;51.824;4.682;2022-10-31T12:05:49;49.67;;;28.63;;
37997;SDS011;24079;51.824;4.682;2022-10-31T12:08:17;56.42;;;31.27;;
37997;SDS011;24079;51.824;4.682;2022-10-31T12:16:20;50.22;;;29.85;;
37997;SDS011;24079;51.824;4.682;2022-10-31T12:24:15;55.47;;;30.27;;
37997;SDS011;24079;51.824;4.682;2022-10-31T12:27:22;59.95;;;32.45;;
37997;SDS011;24079;51.824;4.682;2022-10-31T12:38:13;57.58;;;31.88;;
37997;SDS011;24079;51.824;4.682;2022-10-31T12:44:34;53.47;;;29.92;;
37997;SDS011;24079;51.824;4.682;2022-10-31T12:50:12;50.58;;;30.77;;
37997;SDS011;24079;51.824;4.682;2022-10-31T12:53:18;54.57;;;31.63;;
37997;SDS011;24079;51.824;4.682;2022-10-31T12:58:32;50.58;;;29.33;;
37997;SDS011;24079;51.824;4.682;2022-10-31T13:01:14;48.67;;;30.77;;
37997;SDS011;24079;51.824;4.682;2022-10-31T13:03:48;47.40;;;29.85;;
37997;SDS011;24079;51.824;4.682;2022-10-31T13:06:47;53.33;;;30.17;;
37997;SDS011;24079;51.824;4.682;2022-10-31T13:09:42;57.30;;;32.72;;
37997;SDS011;24079;51.824;4.682;2022-10-31T13:12:17;51.10;;;29.92;;
37997;SDS011;24079;51.824;4.682;2022-10-31T13:14:52;56.22;;;32.88;;
37997;SDS011;24079;51.824;4.682;2022-10-31T13:17:24;57.63;;;32.30;;
37997;SDS011;24079;51.824;4.682;2022-10-31T13:19:53;51.15;;;31.00;;
37997;SDS011;24079;51.824;4.682;2022-10-31T13:22:27;51.85;;;32.38;;
37997;SDS011;24079;51.824;4.682;2022-10-31T13:25:09;56.60;;;32.25;;
37997;SDS011;24079;51.824;4.682;2022-10-31T13:27:59;50.08;;;32.33;;
37997;SDS011;24079;51.824;4.682;2022-10-31T13:30:37;57.15;;;32.05;;
37997;SDS011;24079;51.824;4.682;2022-10-31T13:33:23;59.20;;;33.45;;
37997;SDS011;24079;51.824;4.682;2022-10-31T13:41:00;60.63;;;34.58;;
37997;SDS011;24079;51.824;4.682;2022-10-31T13:46:25;58.30;;;34.25;;
37997;SDS011;24079;51.824;4.682;2022-10-31T13:49:00;56.05;;;33.90;;
37997;SDS011;24079;51.824;4.682;2022-10-31T13:51:26;55.45;;;35.35;;
37997;SDS011;24079;51.824;4.682;2022-10-31T13:56:21;58.42;;;34.45;;
37997;SDS011;24079;51.824;4.682;2022-10-31T14:01:34;53.25;;;35.25;;
37997;SDS011;24079;51.824;4.682;2022-10-31T14:06:42;50.97;;;34.05;;
37997;SDS011;24079;51.824;4.682;2022-10-31T14:12:12;61.13;;;39.20;;
37997;SDS011;24079;51.824;4.682;2022-10-31T14:15:04;63.15;;;34.97;;
37997;SDS011;24079;51.824;4.682;2022-10-31T14:17:46;57.20;;;33.75;;
37997;SDS011;24079;51.824;4.682;2022-10-31T14:23:10;63.17;;;35.67;;
37997;SDS011;24079;51.824;4.682;2022-10-31T14:26:06;59.92;;;36.17;;
37997;SDS011;24079;51.824;4.682;2022-10-31T14:28:42;50.55;;;34.53;;
37997;SDS011;24079;51.824;4.682;2022-10-31T14:34:00;52.33;;;33.20;;
37997;SDS011;24079;51.824;4.682;2022-10-31T14:39:37;59.22;;;37.30;;
37997;SDS011;24079;51.824;4.682;2022-10-31T14:45:23;65.93;;;38.00;;
37997;SDS011;24079;51.824;4.682;2022-10-31T14:50:54;55.45;;;36.33;;
37997;SDS011;24079;51.824;4.682;2022-10-31T14:53:32;57.60;;;36.05;;
37997;SDS011;24079;51.824;4.682;2022-10-31T14:56:00;64.43;;;37.05;;
37997;SDS011;24079;51.824;4.682;2022-10-31T14:58:37;57.85;;;36.70;;
37997;SDS011;24079;51.824;4.682;2022-10-31T15:01:06;65.90;;;37.80;;
37997;SDS011;24079;51.824;4.682;2022-10-31T15:06:21;53.33;;;34.08;;
37997;SDS011;24079;51.824;4.682;2022-10-31T15:08:51;56.33;;;36.17;;
37997;SDS011;24079;51.824;4.682;2022-10-31T15:11:19;58.85;;;37.35;;
37997;SDS011;24079;51.824;4.682;2022-10-31T15:13:50;59.90;;;36.88;;
37997;SDS011;24079;51.824;4.682;2022-10-31T15:16:20;60.58;;;37.50;;
37997;SDS011;24079;51.824;4.682;2022-10-31T15:18:57;57.60;;;37.42;;
37997;SDS011;24079;51.824;4.682;2022-10-31T15:21:26;58.83;;;35.22;;
37997;SDS011;24079;51.824;4.682;2022-10-31T15:23:56;60.22;;;35.85;;
37997;SDS011;24079;51.824;4.682;2022-10-31T15:26:27;56.50;;;36.63;;
37997;SDS011;24079;51.824;4.682;2022-10-31T15:29:10;55.72;;;34.08;;
37997;SDS011;24079;51.824;4.682;2022-10-31T15:34:24;57.83;;;32.58;;
37997;SDS011;24079;51.824;4.682;2022-10-31T15:36:58;57.88;;;31.60;;
37997;SDS011;24079;51.824;4.682;2022-10-31T15:39:24;53.95;;;30.15;;
37997;SDS011;24079;51.824;4.682;2022-10-31T15:41:51;54.55;;;31.38;;
37997;SDS011;24079;51.824;4.682;2022-10-31T15:47:01;55.83;;;29.17;;
37997;SDS011;24079;51.824;4.682;2022-10-31T15:52:04;52.17;;;30.00;;
37997;SDS011;24079;51.824;4.682;2022-10-31T15:54:36;42.53;;;27.42;;
37997;SDS011;24079;51.824;4.682;2022-10-31T15:57:13;66.82;;;28.27;;
37997;SDS011;24079;51.824;4.682;2022-10-31T15:59:40;53.38;;;28.30;;
37997;SDS011;24079;51.824;4.682;2022-10-31T16:02:11;48.25;;;26.80;;
37997;SDS011;24079;51.824;4.682;2022-10-31T16:04:47;46.35;;;25.70;;
37997;SDS011;24079;51.824;4.682;2022-10-31T16:07:19;44.08;;;25.00;;
37997;SDS011;24079;51.824;4.682;2022-10-31T16:09:52;43.30;;;24.27;;
37997;SDS011;24079;51.824;4.682;2022-10-31T16:12:20;43.47;;;24.20;;
37997;SDS011;24079;51.824;4.682;2022-10-31T16:14:47;43.40;;;24.08;;
37997;SDS011;24079;51.824;4.682;2022-10-31T16:17:15;41.15;;;22.13;;
37997;SDS011;24079;51.824;4.682;2022-10-31T16:19:53;48.15;;;24.60;;
37997;SDS011;24079;51.824;4.682;2022-10-31T16:22:39;56.03;;;25.88;;
37997;SDS011;24079;51.824;4.682;2022-10-31T16:25:12;41.03;;;22.77;;
37997;SDS011;24079;51.824;4.682;2022-10-31T16:27:47;38.10;;;21.10;;
37997;SDS011;24079;51.824;4.682;2022-10-31T16:35:52;37.15;;;19.30;;
37997;SDS011;24079;51.824;4.682;2022-10-31T16:38:20;34.83;;;18.88;;
37997;SDS011;24079;51.824;4.682;2022-10-31T16:40:45;33.50;;;18.88;;
37997;SDS011;24079;51.824;4.682;2022-10-31T16:43:13;36.95;;;18.52;;
37997;SDS011;24079;51.824;4.682;2022-10-31T16:45:44;34.88;;;18.35;;
37997;SDS011;24079;51.824;4.682;2022-10-31T16:48:16;37.67;;;19.52;;
37997;SDS011;24079;51.824;4.682;2022-10-31T16:50:44;37.25;;;17.65;;
37997;SDS011;24079;51.824;4.682;2022-10-31T16:53:11;33.75;;;18.33;;
37997;SDS011;24079;51.824;4.682;2022-10-31T16:55:48;32.50;;;18.30;;
37997;SDS011;24079;51.824;4.682;2022-10-31T16:58:23;43.70;;;19.05;;
37997;SDS011;24079;51.824;4.682;2022-10-31T17:01:08;32.92;;;18.85;;
37997;SDS011;24079;51.824;4.682;2022-10-31T17:03:33;35.10;;;18.27;;
37997;SDS011;24079;51.824;4.682;2022-10-31T17:05:59;30.80;;;17.77;;
37997;SDS011;24079;51.824;4.682;2022-10-31T17:08:25;39.67;;;18.95;;
37997;SDS011;24079;51.824;4.682;2022-10-31T17:10:51;31.83;;;18.20;;
37997;SDS011;24079;51.824;4.682;2022-10-31T17:13:21;31.30;;;17.48;;
37997;SDS011;24079;51.824;4.682;2022-10-31T17:15:50;33.22;;;18.38;;
37997;SDS011;24079;51.824;4.682;2022-10-31T17:18:18;33.28;;;18.40;;